Time;durP1;ratioP1;P1;durP2;ratioP2;P2;SDS_P1;SDS_P2;PMS_P1;PMS_P2;Temp;Humidity;BMP_temperature;BMP_pressure;BME280_temperature;BME280_humidity;BME280_pressure;Samples;Min_cycle;Max_cycle;Signal;HPM_P1;HPM_P2
2022/09/28 00:00:26;;;;;;;3.22;1.90;;;20.30;64.50;;;;;;4959434;28;88619;-86
2022/09/28 00:02:56;;;;;;;3.67;1.85;;;20.20;64.20;;;;;;4961522;28;87368;-86
2022/09/28 00:05:22;;;;;;;3.60;2.17;;;20.20;64.40;;;;;;4958623;28;90610;-86
2022/09/28 00:07:48;;;;;;;2.42;1.83;;;20.20;64.50;;;;;;4959018;28;88280;-85
2022/09/28 00:10:14;;;;;;;4.28;2.05;;;20.20;64.40;;;;;;4960629;28;87551;-85
2022/09/28 00:12:40;;;;;;;3.70;1.83;;;20.30;64.40;;;;;;4958238;28;89296;-86
2022/09/28 00:15:07;;;;;;;3.38;2.08;;;20.20;64.20;;;;;;4974813;28;90468;-86
2022/09/28 00:17:33;;;;;;;3.35;2.05;;;20.30;64.20;;;;;;4981458;28;90043;-85
2022/09/28 00:19:58;;;;;;;3.38;1.98;;;20.20;64.30;;;;;;4980089;28;87565;-85
2022/09/28 00:22:24;;;;;;;3.40;1.80;;;20.20;64.10;;;;;;4944848;28;89818;-85
2022/09/28 00:24:49;;;;;;;2.75;1.70;;;20.20;64.10;;;;;;4950478;28;92068;-86
2022/09/28 00:27:16;;;;;;;3.50;1.98;;;20.20;64.20;;;;;;4979849;28;89291;-86
2022/09/28 00:29:42;;;;;;;3.38;1.70;;;20.20;64.00;;;;;;4980714;28;86960;-86
2022/09/28 00:32:12;;;;;;;3.22;1.92;;;20.20;64.10;;;;;;4980010;28;88309;-86
2022/09/28 00:34:44;;;;;;;2.47;1.45;;;20.20;64.00;;;;;;4979065;28;87271;-86
2022/09/28 00:37:12;;;;;;;3.50;1.90;;;20.20;63.90;;;;;;4979282;28;88212;-85
2022/09/28 00:39:40;;;;;;;3.33;1.75;;;20.20;63.90;;;;;;4960796;28;87273;-86
2022/09/28 00:42:16;;;;;;;3.00;1.80;;;20.20;64.00;;;;;;4961742;28;90444;-85
2022/09/28 00:44:49;;;;;;;2.55;1.52;;;20.20;64.50;;;;;;4960592;28;90507;-86
2022/09/28 00:47:34;;;;;;;3.35;1.92;;;20.20;64.10;;;;;;4959763;28;92520;-86
2022/09/28 00:50:02;;;;;;;3.35;1.92;;;20.20;64.10;;;;;;4977598;28;87903;-86
2022/09/28 00:53:03;;;;;;;3.03;1.60;;;20.10;64.00;;;;;;4979083;28;87709;-86
2022/09/28 00:55:50;;;;;;;2.55;1.80;;;20.20;64.10;;;;;;4978725;28;88598;-86
2022/09/28 00:58:43;;;;;;;3.00;1.58;;;20.20;64.20;;;;;;4978106;28;87438;-86
2022/09/28 01:01:08;;;;;;;3.00;1.70;;;20.20;64.20;;;;;;4978425;28;86965;-86
2022/09/28 01:03:34;;;;;;;3.05;1.75;;;20.20;64.00;;;;;;4975758;28;87398;-86
2022/09/28 01:06:03;;;;;;;2.75;1.70;;;20.10;64.00;;;;;;4970874;28;88084;-86
2022/09/28 01:08:31;;;;;;;4.33;1.80;;;20.20;64.10;;;;;;4980172;28;89001;-85
2022/09/28 01:10:58;;;;;;;3.00;1.50;;;20.10;64.00;;;;;;4979063;28;87682;-86
2022/09/28 01:13:24;;;;;;;2.88;1.70;;;20.20;64.20;;;;;;4956761;28;91155;-85
2022/09/28 01:16:17;;;;;;;3.30;1.88;;;20.10;64.10;;;;;;4959633;28;88522;-86
2022/09/28 01:18:52;;;;;;;2.90;1.70;;;20.10;64.20;;;;;;4940197;28;92362;-86
2022/09/28 01:21:19;;;;;;;2.38;1.33;;;20.10;64.00;;;;;;4959458;28;87580;-86
2022/09/28 01:24:02;;;;;;;3.60;1.83;;;20.20;64.10;;;;;;4957676;28;89398;-85
2022/09/28 01:26:50;;;;;;;3.80;1.88;;;20.20;64.00;;;;;;4959589;28;88631;-86
2022/09/28 01:29:37;;;;;;;2.80;1.90;;;20.10;63.90;;;;;;4957707;28;92939;-86
2022/09/28 01:32:21;;;;;;;2.97;1.83;;;20.20;63.90;;;;;;4959502;28;86993;-85
2022/09/28 01:35:01;;;;;;;2.47;1.67;;;20.10;63.90;;;;;;4959586;28;87138;-85
2022/09/28 01:37:46;;;;;;;3.53;1.55;;;20.10;63.80;;;;;;4957701;28;88330;-85
2022/09/28 01:40:14;;;;;;;3.05;1.67;;;20.10;64.00;;;;;;4959037;28;86844;-86
2022/09/28 01:42:43;;;;;;;3.38;1.50;;;20.10;64.10;;;;;;4956136;28;88072;-86
2022/09/28 01:45:32;;;;;;;2.58;1.63;;;20.10;63.90;;;;;;4973686;28;89343;-85
2022/09/28 01:48:03;;;;;;;2.33;1.63;;;20.10;63.90;;;;;;4958518;28;89534;-86
2022/09/28 01:50:34;;;;;;;3.88;1.77;;;20.10;63.90;;;;;;4958623;28;88040;-85
2022/09/28 01:52:59;;;;;;;3.03;1.60;;;20.10;64.00;;;;;;4959129;28;87960;-86
2022/09/28 01:55:32;;;;;;;2.78;1.60;;;20.00;64.60;;;;;;4959366;28;87219;-86
2022/09/28 01:58:06;;;;;;;2.22;1.50;;;20.10;63.90;;;;;;4958076;28;88252;-86
2022/09/28 02:00:34;;;;;;;2.15;1.33;;;20.10;63.90;;;;;;4958806;28;88619;-86
2022/09/28 02:03:41;;;;;;;1.92;1.20;;;20.10;64.00;;;;;;4958623;28;87311;-85
2022/09/28 02:06:17;;;;;;;2.47;1.40;;;20.00;63.70;;;;;;4879083;28;87703;-86
2022/09/28 02:08:50;;;;;;;2.47;1.70;;;20.00;63.80;;;;;;4878601;28;89110;-85
2022/09/28 02:11:19;;;;;;;2.75;1.70;;;20.10;63.60;;;;;;4878705;28;92871;-86
2022/09/28 02:14:03;;;;;;;1.90;1.30;;;20.00;63.70;;;;;;4884722;28;87185;-86
2022/09/28 02:16:40;;;;;;;3.20;1.73;;;20.00;64.00;;;;;;4877229;28;91043;-86
2022/09/28 02:19:10;;;;;;;1.40;1.10;;;20.00;63.70;;;;;;4867528;28;90310;-86
2022/09/28 02:21:52;;;;;;;1.67;1.20;;;20.00;63.70;;;;;;4888995;28;88427;-86
2022/09/28 02:24:26;;;;;;;1.95;1.30;;;20.00;63.70;;;;;;4887847;28;87297;-86
2022/09/28 02:26:57;;;;;;;2.42;1.20;;;20.00;63.80;;;;;;4886574;28;86760;-85
2022/09/28 02:29:23;;;;;;;1.52;1.23;;;20.00;63.80;;;;;;4888458;28;88825;-86
2022/09/28 02:31:50;;;;;;;2.60;1.58;;;20.00;63.80;;;;;;4892204;28;88504;-86
2022/09/28 02:34:16;;;;;;;2.60;1.63;;;20.00;63.70;;;;;;4888540;28;88350;-85
2022/09/28 02:36:43;;;;;;;1.77;1.30;;;20.00;63.70;;;;;;4900960;28;87839;-85
2022/09/28 02:39:16;;;;;;;1.88;1.42;;;20.00;63.80;;;;;;4901539;28;89017;-86
2022/09/28 02:42:00;;;;;;;2.08;1.30;;;20.00;63.80;;;;;;4944645;28;88457;-86
2022/09/28 02:44:59;;;;;;;3.22;1.83;;;20.00;63.80;;;;;;4970685;28;86905;-86
2022/09/28 02:47:46;;;;;;;3.05;1.50;;;20.00;63.70;;;;;;4971012;28;89958;-85
2022/09/28 02:50:21;;;;;;;2.45;1.50;;;20.00;63.70;;;;;;4961110;28;91804;-86
2022/09/28 02:52:52;;;;;;;2.13;1.35;;;19.90;63.60;;;;;;4977981;28;88247;-86
2022/09/28 02:55:52;;;;;;;2.88;1.60;;;19.90;63.60;;;;;;4981274;28;87325;-85
2022/09/28 02:58:32;;;;;;;2.08;1.45;;;19.90;63.60;;;;;;4981059;28;87244;-86
2022/09/28 03:01:23;;;;;;;2.35;1.20;;;19.90;63.60;;;;;;4980534;28;88924;-86
2022/09/28 03:03:55;;;;;;;1.77;1.27;;;19.90;63.50;;;;;;4980525;28;89611;-86
2022/09/28 03:06:41;;;;;;;2.10;1.42;;;19.90;63.60;;;;;;4981970;28;87074;-86
2022/09/28 03:09:37;;;;;;;1.73;1.30;;;19.90;63.60;;;;;;4981633;28;87206;-86
2022/09/28 03:12:09;;;;;;;2.80;1.58;;;19.90;63.60;;;;;;4919717;28;88409;-86
2022/09/28 03:14:35;;;;;;;2.35;1.52;;;19.90;63.60;;;;;;4919604;28;88762;-85
2022/09/28 03:17:00;;;;;;;1.70;1.17;;;19.90;63.80;;;;;;4920265;28;87466;-86
2022/09/28 03:19:30;;;;;;;2.58;1.27;;;19.90;63.60;;;;;;4919043;28;87354;-86
2022/09/28 03:21:56;;;;;;;1.73;0.98;;;19.90;63.70;;;;;;4919372;28;88404;-85
2022/09/28 03:24:21;;;;;;;2.13;1.48;;;19.90;63.60;;;;;;4902494;28;91510;-86
2022/09/28 03:26:47;;;;;;;2.33;1.10;;;19.90;63.80;;;;;;4934496;28;88401;-86
2022/09/28 03:29:13;;;;;;;2.85;1.30;;;19.90;63.60;;;;;;4919334;28;87443;-85
2022/09/28 03:31:38;;;;;;;1.75;1.10;;;19.90;64.00;;;;;;4918769;28;89978;-86
2022/09/28 03:34:04;;;;;;;3.17;1.38;;;19.80;63.70;;;;;;4919097;28;88519;-85
2022/09/28 03:36:29;;;;;;;2.15;1.33;;;19.90;63.70;;;;;;4915098;28;87517;-85
2022/09/28 03:38:55;;;;;;;1.77;1.20;;;19.90;63.70;;;;;;4929643;28;87305;-86
2022/09/28 03:41:23;;;;;;;2.30;1.30;;;19.90;63.90;;;;;;4918042;28;87775;-86
2022/09/28 03:43:48;;;;;;;1.92;1.35;;;19.80;63.70;;;;;;4918990;28;88077;-86
2022/09/28 03:46:14;;;;;;;1.40;1.30;;;19.90;63.80;;;;;;4919396;28;87053;-85
2022/09/28 03:48:40;;;;;;;2.17;1.23;;;19.90;63.70;;;;;;4941289;28;87635;-86
2022/09/28 03:51:08;;;;;;;3.40;1.35;;;19.90;63.60;;;;;;4980396;28;89465;-86
2022/09/28 03:53:34;;;;;;;2.50;1.45;;;19.90;63.60;;;;;;4981036;28;87575;-86
2022/09/28 03:56:26;;;;;;;1.25;1.02;;;19.90;63.80;;;;;;4980527;28;87766;-86
2022/09/28 03:58:52;;;;;;;1.70;1.23;;;19.80;63.70;;;;;;4918679;28;87657;-86
2022/09/28 04:01:17;;;;;;;3.17;1.35;;;19.80;63.70;;;;;;4909857;28;89073;-86
2022/09/28 04:03:44;;;;;;;1.30;1.00;;;19.80;63.60;;;;;;4918255;28;87270;-86
2022/09/28 04:06:09;;;;;;;1.98;1.20;;;19.80;63.80;;;;;;4918030;28;87212;-86
2022/09/28 04:08:35;;;;;;;1.25;1.10;;;19.80;63.70;;;;;;4919956;28;87250;-86
2022/09/28 04:11:01;;;;;;;1.27;1.00;;;19.80;63.80;;;;;;4918046;28;88844;-85
2022/09/28 04:13:28;;;;;;;1.50;1.30;;;19.80;63.50;;;;;;4919090;28;87480;-85
2022/09/28 04:15:55;;;;;;;2.10;1.25;;;19.80;63.70;;;;;;4917803;28;88264;-85
2022/09/28 04:18:21;;;;;;;1.65;1.10;;;19.80;63.70;;;;;;4918588;28;87275;-86
2022/09/28 04:20:47;;;;;;;1.13;0.88;;;19.80;63.90;;;;;;4918569;28;88327;-85
2022/09/28 04:23:16;;;;;;;2.30;1.23;;;19.80;63.80;;;;;;4918853;28;87838;-85
2022/09/28 04:25:46;;;;;;;2.33;1.13;;;19.70;63.60;;;;;;4918336;28;87024;-85
2022/09/28 04:30:56;;;;;;;2.30;1.20;;;19.70;63.50;;;;;;4918862;28;87409;-86
2022/09/28 04:33:21;;;;;;;1.98;1.00;;;19.80;63.80;;;;;;4918300;28;87418;-86
2022/09/28 04:35:47;;;;;;;1.77;1.25;;;19.80;63.80;;;;;;4973666;28;87184;-85
2022/09/28 04:38:12;;;;;;;14.13;3.83;;;19.80;63.70;;;;;;4980083;28;87366;-84
2022/09/28 04:40:38;;;;;;;1.92;1.27;;;19.70;61.80;;;;;;4978155;28;88977;-85
2022/09/28 04:43:03;;;;;;;4.95;1.20;;;19.70;63.50;;;;;;4973655;28;89056;-84
2022/09/28 04:45:29;;;;;;;5.97;1.50;;;19.70;63.50;;;;;;4971974;28;86863;-84
2022/09/28 04:47:55;;;;;;;3.33;1.48;;;19.70;63.30;;;;;;4979027;28;87631;-83
2022/09/28 04:50:20;;;;;;;3.60;1.40;;;19.70;63.40;;;;;;4980047;28;88566;-84
2022/09/28 04:52:46;;;;;;;4.03;1.58;;;19.70;63.50;;;;;;4979646;28;88413;-85
2022/09/28 04:55:13;;;;;;;4.53;1.40;;;19.70;63.40;;;;;;4978243;28;87386;-84
2022/09/28 04:57:39;;;;;;;5.68;1.70;;;19.70;63.40;;;;;;4977864;28;86437;-84
2022/09/28 05:00:05;;;;;;;2.55;1.42;;;19.70;63.10;;;;;;4978448;28;88463;-84
2022/09/28 05:02:31;;;;;;;21.38;4.30;;;19.70;63.30;;;;;;4979009;28;90245;-83
2022/09/28 05:04:57;;;;;;;9.48;2.33;;;19.70;63.00;;;;;;4993449;28;88394;-84
2022/09/28 05:07:25;;;;;;;14.77;3.42;;;19.70;63.30;;;;;;4976749;28;90766;-87
2022/09/28 05:09:50;;;;;;;11.63;2.65;;;19.70;63.40;;;;;;4977083;28;91960;-81
2022/09/28 05:12:16;;;;;;;11.25;2.90;;;19.70;64.50;;;;;;4977900;28;88069;-86
2022/09/28 05:14:42;;;;;;;17.25;4.05;;;19.70;63.90;;;;;;4977688;28;87141;-86
2022/09/28 05:17:09;;;;;;;19.63;5.45;;;19.70;63.80;;;;;;4977361;28;89353;-84
2022/09/28 05:19:34;;;;;;;20.02;5.05;;;19.70;64.10;;;;;;4962322;28;91428;-85
2022/09/28 05:22:04;;;;;;;18.27;4.95;;;19.70;64.20;;;;;;4959970;28;87402;-84
2022/09/28 05:24:30;;;;;;;24.63;5.72;;;19.70;64.50;;;;;;4958480;28;87473;-87
2022/09/28 05:26:56;;;;;;;18.88;4.97;;;19.70;64.70;;;;;;4958496;28;87928;-84
2022/09/28 05:29:22;;;;;;;24.05;5.32;;;19.70;65.00;;;;;;4971933;28;92074;-85
2022/09/28 05:31:47;;;;;;;26.70;5.97;;;19.70;64.70;;;;;;4956259;28;89168;-84
2022/09/28 05:34:13;;;;;;;20.60;5.78;;;19.70;64.90;;;;;;4966839;28;88426;-84
2022/09/28 05:36:41;;;;;;;25.85;6.60;;;19.70;65.00;;;;;;4966474;28;91561;-84
2022/09/28 05:39:07;;;;;;;16.10;5.03;;;19.70;64.80;;;;;;4956709;28;88548;-83
2022/09/28 05:41:33;;;;;;;20.67;5.93;;;19.70;64.80;;;;;;4963816;28;89990;-84
2022/09/28 05:43:59;;;;;;;16.33;5.60;;;19.70;65.00;;;;;;4931562;28;87296;-83
2022/09/28 05:46:24;;;;;;;20.60;6.13;;;19.80;64.60;;;;;;4934092;28;87410;-84
2022/09/28 05:48:51;;;;;;;30.38;6.50;;;19.80;64.60;;;;;;4907819;28;87692;-82
2022/09/28 05:51:17;;;;;;;28.73;6.07;;;19.70;64.80;;;;;;4932437;28;87559;-84
2022/09/28 05:53:43;;;;;;;20.17;5.25;;;19.80;64.80;;;;;;4918264;28;88517;-81
2022/09/28 05:56:08;;;;;;;19.05;5.72;;;19.70;64.90;;;;;;4933380;28;87553;-84
2022/09/28 05:58:34;;;;;;;21.23;6.97;;;19.70;63.70;;;;;;4934372;28;88027;-83
2022/09/28 06:00:59;;;;;;;25.05;6.90;;;19.70;63.50;;;;;;4935496;28;88197;-84
2022/09/28 06:03:25;;;;;;;23.83;6.70;;;19.70;63.50;;;;;;4919310;28;87046;-85
2022/09/28 06:05:51;;;;;;;19.30;5.72;;;19.70;62.90;;;;;;4919672;28;89679;-83
2022/09/28 06:08:18;;;;;;;19.75;6.45;;;19.70;62.20;;;;;;4936326;28;88677;-83
2022/09/28 06:10:43;;;;;;;22.40;6.65;;;19.60;62.90;;;;;;4935503;28;88552;-84
2022/09/28 06:13:10;;;;;;;24.67;7.78;;;19.70;63.00;;;;;;4935830;28;87665;-82
2022/09/28 06:15:37;;;;;;;41.05;8.05;;;19.60;63.80;;;;;;4952465;28;90744;-84
2022/09/28 06:18:13;;;;;;;51.00;9.05;;;19.60;65.10;;;;;;4964975;28;90960;-84
2022/09/28 06:20:40;;;;;;;46.20;8.88;;;19.60;65.50;;;;;;4992697;28;90838;-86
2022/09/28 06:23:06;;;;;;;109.05;11.50;;;19.70;65.60;;;;;;4977327;28;87519;-85
2022/09/28 06:25:32;;;;;;;91.20;10.55;;;19.70;64.80;;;;;;4977296;28;87331;-84
2022/09/28 06:27:59;;;;;;;79.03;10.68;;;19.70;65.40;;;;;;4975278;28;89533;-85
2022/09/28 06:30:26;;;;;;;40.95;8.88;;;19.70;65.60;;;;;;4977401;28;89026;-83
2022/09/28 06:32:56;;;;;;;49.00;9.65;;;19.70;65.60;;;;;;4977633;28;87493;-84
2022/09/28 06:35:24;;;;;;;48.67;10.13;;;19.70;65.40;;;;;;4979211;28;86579;-84
2022/09/28 06:37:51;;;;;;;42.40;9.10;;;19.80;65.80;;;;;;4977662;28;88635;-84
2022/09/28 06:40:17;;;;;;;42.00;9.15;;;19.90;65.60;;;;;;4978058;28;88909;-85
2022/09/28 06:42:43;;;;;;;44.38;8.82;;;19.90;65.70;;;;;;4977893;28;88009;-84
2022/09/28 06:45:09;;;;;;;40.92;9.57;;;19.90;65.70;;;;;;4977299;28;87249;-84
2022/09/28 06:47:36;;;;;;;35.28;8.40;;;19.90;65.90;;;;;;4977886;28;86924;-85
2022/09/28 06:50:05;;;;;;;29.35;8.27;;;20.00;65.80;;;;;;4978358;28;88848;-85
2022/09/28 06:52:30;;;;;;;32.90;7.70;;;20.00;65.80;;;;;;4976698;28;87021;-83
2022/09/28 06:54:56;;;;;;;33.40;9.30;;;20.10;65.60;;;;;;4977464;28;87433;-85
2022/09/28 06:57:21;;;;;;;34.63;7.57;;;20.10;65.80;;;;;;4978282;28;88756;-87
2022/09/28 06:59:47;;;;;;;38.25;8.63;;;20.10;65.80;;;;;;4976897;28;90789;-86
2022/09/28 07:02:13;;;;;;;36.08;8.32;;;20.10;65.60;;;;;;4978428;28;86967;-86
2022/09/28 07:04:42;;;;;;;32.97;7.93;;;20.20;65.70;;;;;;4976054;28;90392;-87
2022/09/28 07:07:11;;;;;;;26.00;7.53;;;20.20;65.80;;;;;;4977726;28;88646;-87
2022/09/28 07:09:37;;;;;;;32.72;8.07;;;20.20;65.90;;;;;;4975159;28;91091;-87
2022/09/28 07:12:08;;;;;;;25.38;7.75;;;20.20;65.80;;;;;;4978445;28;88102;-85
2022/09/28 07:14:34;;;;;;;31.15;7.75;;;20.30;65.70;;;;;;4976964;28;88003;-85
2022/09/28 07:17:02;;;;;;;24.48;7.20;;;20.30;65.70;;;;;;4979168;28;88963;-86
2022/09/28 07:19:27;;;;;;;23.05;7.30;;;20.30;65.60;;;;;;4978611;28;90131;-85
2022/09/28 07:21:53;;;;;;;24.92;7.70;;;20.40;65.60;;;;;;4980146;28;87233;-84
2022/09/28 07:24:19;;;;;;;21.52;7.63;;;20.40;65.40;;;;;;4977407;28;87412;-85
2022/09/28 07:26:45;;;;;;;30.92;7.53;;;20.50;65.30;;;;;;4967744;28;91238;-83
2022/09/28 07:29:12;;;;;;;33.25;7.07;;;20.50;65.30;;;;;;4980666;28;88827;-84
2022/09/28 07:31:38;;;;;;;29.40;7.10;;;20.50;59.70;;;;;;4979500;28;88417;-85
2022/09/28 07:34:03;;;;;;;31.02;7.43;;;20.60;64.40;;;;;;4981455;28;87566;-84
2022/09/28 07:36:34;;;;;;;41.63;7.43;;;20.50;65.60;;;;;;4980993;28;87511;-86
2022/09/28 07:39:00;;;;;;;49.28;6.90;;;20.60;66.00;;;;;;4979353;28;91123;-85
2022/09/28 07:41:33;;;;;;;113.95;9.07;;;20.60;63.40;;;;;;4981160;28;86972;-83
2022/09/28 07:44:09;;;;;;;39.35;5.85;;;20.50;58.20;;;;;;4979794;28;87067;-83
2022/09/28 07:46:36;;;;;;;30.98;5.43;;;20.40;58.00;;;;;;4976874;28;91361;-85
2022/09/28 07:49:04;;;;;;;34.10;6.22;;;20.40;59.00;;;;;;4979914;28;88473;-85
2022/09/28 07:51:31;;;;;;;40.40;5.90;;;20.40;61.20;;;;;;4979904;28;87391;-84
2022/09/28 07:53:56;;;;;;;40.47;5.30;;;20.50;61.90;;;;;;4980039;28;87565;-84
2022/09/28 07:56:22;;;;;;;38.42;4.55;;;20.50;58.50;;;;;;4979916;28;88930;-83
2022/09/28 07:58:48;;;;;;;39.00;5.85;;;20.40;58.40;;;;;;4977116;28;91693;-82
2022/09/28 08:01:15;;;;;;;43.65;4.78;;;20.30;59.90;;;;;;4977437;28;87491;-82
2022/09/28 08:03:45;;;;;;;31.17;4.65;;;20.30;59.10;;;;;;4977630;28;87363;-84
2022/09/28 08:06:13;;;;;;;29.77;5.20;;;20.40;60.10;;;;;;4979039;28;87364;-85
2022/09/28 08:08:43;;;;;;;24.00;4.18;;;20.40;61.50;;;;;;4977645;28;89294;-84
2022/09/28 08:11:13;;;;;;;23.67;4.85;;;20.50;60.50;;;;;;4956000;28;87193;-84
2022/09/28 08:13:39;;;;;;;27.55;4.80;;;20.50;60.10;;;;;;4971879;28;86709;-85
2022/09/28 08:16:07;;;;;;;18.98;5.63;;;20.60;60.30;;;;;;4991582;28;90118;-84
2022/09/28 08:18:33;;;;;;;21.35;4.40;;;20.60;60.30;;;;;;4976970;28;88399;-86
2022/09/28 08:23:44;;;;;;;21.92;3.60;;;20.60;57.80;;;;;;4976074;28;87016;-84
2022/09/28 08:26:10;;;;;;;20.15;4.25;;;20.50;58.50;;;;;;4977113;28;88177;-86
2022/09/28 08:28:35;;;;;;;20.10;4.18;;;20.50;58.50;;;;;;4958733;28;91699;-84
2022/09/28 08:31:01;;;;;;;30.45;4.15;;;20.40;58.80;;;;;;4975598;28;87190;-84
2022/09/28 08:33:27;;;;;;;29.77;5.03;;;20.40;59.50;;;;;;4976384;28;87871;-84
2022/09/28 08:35:57;;;;;;;20.98;3.50;;;20.40;60.00;;;;;;4968902;28;91498;-84
2022/09/28 08:38:25;;;;;;;17.33;3.92;;;20.40;59.60;;;;;;4976298;28;87028;-85
2022/09/28 08:41:32;;;;;;;14.95;4.40;;;20.40;59.90;;;;;;4978815;28;87709;-83
2022/09/28 08:44:00;;;;;;;29.98;4.82;;;20.40;59.80;;;;;;4978197;28;87465;-83
2022/09/28 08:46:33;;;;;;;11.18;3.13;;;20.40;59.90;;;;;;4977603;28;89646;-83
2022/09/28 08:49:06;;;;;;;24.27;4.65;;;20.40;60.10;;;;;;4979030;28;88999;-83
2022/09/28 08:51:43;;;;;;;15.43;3.85;;;20.40;60.20;;;;;;4979360;28;87213;-83
2022/09/28 08:54:32;;;;;;;15.32;4.03;;;20.40;60.20;;;;;;4977985;28;87296;-83
2022/09/28 08:57:04;;;;;;;13.60;3.28;;;20.40;60.60;;;;;;4977402;28;88430;-83
2022/09/28 08:59:50;;;;;;;18.58;4.00;;;20.40;61.20;;;;;;4978610;28;87674;-81
2022/09/28 09:02:32;;;;;;;13.65;3.95;;;20.40;61.70;;;;;;4959289;28;86962;-82
2022/09/28 09:05:00;;;;;;;11.30;2.78;;;20.40;61.90;;;;;;4968593;28;86994;-83
2022/09/28 09:08:11;;;;;;;14.73;3.72;;;20.40;62.10;;;;;;4978055;28;88504;-83
2022/09/28 09:10:57;;;;;;;13.18;3.22;;;20.50;62.10;;;;;;4935843;28;87474;-83
2022/09/28 09:13:32;;;;;;;17.30;3.83;;;20.50;61.40;;;;;;4936716;28;88507;-84
2022/09/28 09:16:30;;;;;;;14.57;4.20;;;20.50;61.20;;;;;;4936232;28;86941;-83
2022/09/28 09:19:21;;;;;;;15.10;3.87;;;20.40;62.40;;;;;;4936404;28;87422;-84
2022/09/28 09:21:54;;;;;;;11.15;3.38;;;20.40;62.80;;;;;;4935694;28;88700;-82
2022/09/28 09:24:49;;;;;;;13.88;3.78;;;20.30;62.70;;;;;;4936551;28;87112;-81
2022/09/28 09:27:39;;;;;;;9.32;3.70;;;20.30;61.80;;;;;;4935590;28;87917;-82
2022/09/28 09:30:10;;;;;;;11.02;3.05;;;20.40;61.70;;;;;;4934917;28;87741;-80
2022/09/28 09:33:22;;;;;;;13.05;2.80;;;20.40;61.60;;;;;;4936787;28;91769;-81
2022/09/28 09:35:51;;;;;;;13.35;3.30;;;20.40;61.00;;;;;;4937048;28;87468;-82
2022/09/28 09:38:27;;;;;;;12.85;2.65;;;20.50;62.20;;;;;;4936173;28;88252;-81
2022/09/28 09:41:14;;;;;;;13.55;3.65;;;20.40;61.40;;;;;;4934374;28;92367;-83
2022/09/28 09:43:58;;;;;;;13.73;3.00;;;20.50;61.60;;;;;;4935353;28;89579;-81
2022/09/28 09:46:39;;;;;;;13.00;2.90;;;20.40;62.00;;;;;;4939639;28;87553;-81
2022/09/28 09:49:23;;;;;;;12.10;2.97;;;20.40;61.80;;;;;;4977665;28;87584;-81
2022/09/28 09:52:05;;;;;;;12.18;3.08;;;20.40;61.90;;;;;;4976488;28;90670;-82
2022/09/28 09:54:45;;;;;;;9.02;2.80;;;20.30;61.60;;;;;;4978057;28;87410;-82
2022/09/28 09:57:34;;;;;;;8.88;3.00;;;20.30;61.90;;;;;;4978305;28;86804;-81
2022/09/28 10:00:02;;;;;;;13.57;3.13;;;20.30;61.90;;;;;;4977483;28;87388;-81
2022/09/28 10:02:31;;;;;;;9.40;3.10;;;20.30;61.70;;;;;;4978162;28;87999;-81
2022/09/28 10:05:10;;;;;;;9.88;2.55;;;20.30;61.80;;;;;;4977866;28;87440;-81
2022/09/28 10:07:45;;;;;;;8.30;2.47;;;20.30;61.90;;;;;;4977995;28;87932;-81
2022/09/28 10:10:19;;;;;;;9.40;2.63;;;20.30;61.80;;;;;;4978362;28;87458;-81
2022/09/28 10:12:47;;;;;;;10.25;2.95;;;20.30;61.70;;;;;;4966989;28;90490;-81
2022/09/28 10:15:17;;;;;;;10.57;2.88;;;20.40;61.90;;;;;;4953165;28;87643;-81
2022/09/28 10:17:43;;;;;;;10.68;2.88;;;20.30;61.90;;;;;;4949930;28;87183;-81
2022/09/28 10:20:15;;;;;;;8.00;3.00;;;20.30;62.00;;;;;;4967438;28;91677;-84
2022/09/28 10:22:41;;;;;;;6.10;2.47;;;20.40;62.20;;;;;;4943440;28;88471;-83
2022/09/28 10:25:08;;;;;;;7.22;2.63;;;20.30;62.00;;;;;;4954930;28;88991;-82
2022/09/28 10:27:39;;;;;;;13.65;2.67;;;20.30;62.00;;;;;;4966406;28;88207;-86
2022/09/28 10:30:11;;;;;;;7.63;2.60;;;20.40;62.00;;;;;;4944462;28;88902;-85
2022/09/28 10:32:38;;;;;;;8.85;2.55;;;20.50;61.80;;;;;;4937932;28;89608;-84
2022/09/28 10:35:22;;;;;;;9.10;2.15;;;20.60;61.40;;;;;;4966762;28;87761;-84
2022/09/28 10:37:53;;;;;;;13.38;3.13;;;20.70;61.40;;;;;;4967467;28;86911;-83
2022/09/28 10:40:29;;;;;;;11.52;2.40;;;20.80;61.30;;;;;;4948011;28;87479;-84
2022/09/28 10:43:16;;;;;;;13.10;2.67;;;21.00;61.10;;;;;;4942606;28;88763;-84
2022/09/28 10:45:42;;;;;;;6.60;1.83;;;21.00;61.10;;;;;;4936976;28;91320;-84
2022/09/28 10:48:19;;;;;;;7.45;2.28;;;21.10;60.90;;;;;;4966087;28;86976;-84
2022/09/28 10:51:04;;;;;;;10.02;2.47;;;21.20;61.10;;;;;;4968119;28;87563;-84
2022/09/28 10:53:30;;;;;;;15.43;2.78;;;21.30;60.80;;;;;;4970992;28;90346;-84
2022/09/28 10:56:01;;;;;;;10.27;2.00;;;21.30;60.80;;;;;;4953542;28;90197;-84
2022/09/28 10:58:39;;;;;;;10.10;2.45;;;21.30;60.50;;;;;;4970503;28;87931;-86
2022/09/28 11:01:11;;;;;;;7.13;2.65;;;21.40;60.50;;;;;;4951925;28;91057;-84
2022/09/28 11:03:57;;;;;;;8.10;2.35;;;21.40;60.10;;;;;;4969353;28;88030;-83
2022/09/28 11:06:40;;;;;;;11.48;2.20;;;21.50;60.40;;;;;;4971229;28;87868;-82
2022/09/28 11:09:21;;;;;;;7.10;2.70;;;21.50;60.10;;;;;;4971479;28;87369;-83
2022/09/28 11:11:47;;;;;;;7.68;2.15;;;21.60;59.30;;;;;;4969036;28;88219;-82
2022/09/28 11:14:28;;;;;;;7.68;2.13;;;21.60;59.80;;;;;;4965114;28;90967;-84
2022/09/28 11:17:19;;;;;;;4.82;2.38;;;21.60;59.40;;;;;;4979147;28;90032;-83
2022/09/28 11:19:45;;;;;;;10.63;2.28;;;21.70;59.80;;;;;;4982081;28;86896;-84
2022/09/28 11:22:29;;;;;;;9.70;2.00;;;21.70;59.80;;;;;;4980387;28;86914;-83
2022/09/28 11:25:17;;;;;;;10.98;1.80;;;21.70;59.70;;;;;;4977054;28;91806;-84
2022/09/28 11:27:52;;;;;;;10.18;2.35;;;21.80;59.60;;;;;;4977941;28;91003;-83
2022/09/28 11:30:25;;;;;;;8.40;2.80;;;21.70;59.30;;;;;;4979866;28;86867;-84
2022/09/28 11:32:52;;;;;;;12.63;2.33;;;21.80;59.80;;;;;;4979095;28;87474;-84
2022/09/28 11:35:27;;;;;;;10.70;2.45;;;21.80;59.70;;;;;;4982041;28;88333;-84
2022/09/28 11:38:08;;;;;;;9.35;1.90;;;21.80;59.60;;;;;;4979081;28;87908;-83
2022/09/28 11:41:00;;;;;;;12.43;2.67;;;21.80;59.70;;;;;;4979729;28;86984;-83
2022/09/28 11:43:44;;;;;;;15.10;2.95;;;21.80;60.50;;;;;;4980307;28;86904;-85
2022/09/28 11:46:25;;;;;;;11.38;2.28;;;21.80;60.30;;;;;;4978407;28;90420;-84
2022/09/28 11:48:58;;;;;;;12.30;2.83;;;21.80;60.30;;;;;;4979385;28;87813;-84
2022/09/28 11:51:29;;;;;;;10.38;2.20;;;21.70;59.90;;;;;;4979292;28;94346;-83
2022/09/28 11:54:02;;;;;;;12.95;1.90;;;21.70;59.20;;;;;;4977913;28;89606;-85
2022/09/28 11:56:40;;;;;;;11.10;2.30;;;21.70;59.40;;;;;;4994343;28;91937;-84
2022/09/28 11:59:12;;;;;;;8.20;2.50;;;21.60;59.90;;;;;;4975885;28;92056;-83
2022/09/28 12:01:55;;;;;;;11.50;2.35;;;21.60;60.00;;;;;;4974686;28;87292;-84
2022/09/28 12:04:40;;;;;;;8.73;2.55;;;21.60;59.80;;;;;;4979609;28;87575;-83
2022/09/28 12:07:22;;;;;;;12.68;2.30;;;21.60;58.80;;;;;;4979078;28;88271;-84
2022/09/28 12:10:13;;;;;;;20.23;3.45;;;21.70;59.50;;;;;;4979427;28;88359;-84
2022/09/28 12:13:00;;;;;;;14.27;3.22;;;21.70;59.70;;;;;;4979014;28;87552;-84
2022/09/28 12:15:48;;;;;;;14.90;3.03;;;21.80;59.70;;;;;;4979047;28;89583;-83
2022/09/28 12:18:17;;;;;;;7.15;2.58;;;21.80;59.90;;;;;;4978763;28;89083;-84
2022/09/28 12:20:49;;;;;;;21.57;3.10;;;21.80;59.80;;;;;;4980072;28;89345;-85
2022/09/28 12:23:20;;;;;;;20.65;2.63;;;21.90;59.90;;;;;;4959746;28;87439;-82
2022/09/28 12:25:58;;;;;;;12.40;2.15;;;22.00;60.10;;;;;;4974455;28;87011;-83
2022/09/28 12:28:42;;;;;;;17.83;2.75;;;22.00;60.30;;;;;;4974883;28;91552;-83
2022/09/28 12:31:27;;;;;;;20.20;2.63;;;22.00;59.60;;;;;;4975963;28;88252;-84
2022/09/28 12:33:53;;;;;;;10.10;2.80;;;21.90;58.40;;;;;;4992540;28;87361;-82
2022/09/28 12:36:33;;;;;;;11.13;2.40;;;21.90;58.10;;;;;;4976169;28;87693;-83
2022/09/28 12:38:58;;;;;;;13.93;3.15;;;21.80;58.50;;;;;;4968113;28;89326;-82
2022/09/28 12:41:36;;;;;;;8.82;2.20;;;21.80;58.70;;;;;;4979869;28;88104;-82
2022/09/28 12:44:31;;;;;;;7.55;2.63;;;21.70;58.60;;;;;;4978960;28;88080;-83
2022/09/28 12:47:18;;;;;;;12.68;2.40;;;21.70;57.70;;;;;;4978948;28;87767;-83
2022/09/28 12:49:55;;;;;;;11.48;1.90;;;21.70;58.00;;;;;;4979266;28;89625;-83
2022/09/28 12:52:46;;;;;;;8.80;1.60;;;21.70;58.40;;;;;;4995296;28;88403;-84
2022/09/28 12:55:50;;;;;;;6.35;2.03;;;21.70;55.20;;;;;;4994842;28;86998;-81
2022/09/28 12:58:39;;;;;;;10.85;2.25;;;21.70;56.30;;;;;;4979407;28;87999;-84
2022/09/28 13:01:48;;;;;;;38.47;8.25;;;21.70;56.20;;;;;;4979124;28;88751;-82
2022/09/28 13:04:59;;;;;;;45.53;11.65;;;21.70;56.00;;;;;;4902343;28;90102;-85
2022/09/28 13:07:49;;;;;;;31.20;8.25;;;21.70;55.70;;;;;;4890497;28;87501;-85
2022/09/28 13:10:48;;;;;;;29.00;8.20;;;21.70;56.20;;;;;;4890018;28;87369;-84
2022/09/28 13:13:22;;;;;;;34.47;8.75;;;21.70;57.40;;;;;;4902440;28;92671;-84
2022/09/28 13:16:04;;;;;;;36.05;8.18;;;21.80;58.10;;;;;;4887209;28;92239;-86